createdAt,value
2018-08-14T00:00:20.802Z,67.06
2018-08-14T00:02:47.788Z,67.02
2018-08-14T00:05:14.740Z,66.64
2018-08-14T00:07:41.712Z,66.46
2018-08-14T00:10:08.900Z,66.53
2018-08-14T00:12:36.367Z,66.84
2018-08-14T00:15:03.300Z,66.22
2018-08-14T00:17:30.290Z,66.29
2018-08-14T00:19:57.199Z,66.22
2018-08-14T00:22:24.129Z,66.21
2018-08-14T00:24:51.099Z,66.25
2018-08-14T00:27:18.155Z,66.24
2018-08-14T00:29:45.166Z,66.05
2018-08-14T00:32:12.113Z,66.86
2018-08-14T00:34:39.134Z,67.11
2018-08-14T00:37:06.053Z,66.56
2018-08-14T00:39:32.989Z,67.27
2018-08-14T00:41:59.879Z,67.75
2018-08-14T00:44:26.854Z,67.61
2018-08-14T00:46:53.785Z,67.37
2018-08-14T00:49:20.716Z,67.74
2018-08-14T00:51:47.721Z,67.41
2018-08-14T00:54:14.633Z,67.55
2018-08-14T00:56:41.570Z,67.19
2018-08-14T00:59:08.912Z,66.49
2018-08-14T01:01:35.885Z,67.04
2018-08-14T01:04:02.881Z,66.36
2018-08-14T01:06:29.912Z,66.76
2018-08-14T01:08:56.829Z,67.05
2018-08-14T01:11:23.809Z,66.42
2018-08-14T01:13:50.746Z,66.38
2018-08-14T01:16:17.736Z,66.49
2018-08-14T01:18:44.738Z,66.20
2018-08-14T01:21:11.667Z,66.31
2018-08-14T01:23:38.585Z,66.69
2018-08-14T01:26:05.529Z,66.77
2018-08-14T01:28:32.465Z,65.77
2018-08-14T01:30:59.405Z,66.52
2018-08-14T01:33:26.317Z,65.72
2018-08-14T01:35:53.259Z,65.82
2018-08-14T01:38:20.185Z,65.82
2018-08-14T01:40:47.149Z,66.48
2018-08-14T01:43:14.097Z,66.56
2018-08-14T01:45:41.028Z,66.36
2018-08-14T01:48:08.004Z,65.62
2018-08-14T01:50:35.150Z,65.92
2018-08-14T01:53:02.182Z,66.33
2018-08-14T01:55:29.131Z,65.62
2018-08-14T01:57:56.174Z,65.72
2018-08-14T02:00:23.754Z,65.71
2018-08-14T02:02:51.025Z,66.12
2018-08-14T02:05:17.971Z,66.20
2018-08-14T02:07:44.885Z,66.28
2018-08-14T02:10:12.382Z,65.55
2018-08-14T02:12:39.490Z,66.15
2018-08-14T02:15:06.488Z,65.82
2018-08-14T02:17:33.411Z,65.87
2018-08-14T02:20:00.377Z,66.39
2018-08-14T02:22:27.356Z,65.79
2018-08-14T02:24:54.332Z,66.32
2018-08-14T02:27:21.282Z,66.07
2018-08-14T02:29:48.258Z,66.12
2018-08-14T02:32:15.191Z,66.28
2018-08-14T02:34:42.147Z,66.02
2018-08-14T02:37:09.074Z,65.63
2018-08-14T02:39:36.062Z,65.58
2018-08-14T02:42:02.988Z,65.86
2018-08-14T02:44:29.964Z,65.49
2018-08-14T02:46:56.904Z,65.42
2018-08-14T02:49:23.847Z,65.53
2018-08-14T02:51:50.813Z,66.03
2018-08-14T02:54:17.729Z,66.14
2018-08-14T02:56:44.656Z,66.12
2018-08-14T02:59:11.579Z,65.60
2018-08-14T03:01:38.525Z,66.25
2018-08-14T03:04:05.513Z,65.58
2018-08-14T03:06:32.501Z,65.34
2018-08-14T03:08:59.434Z,65.91
2018-08-14T03:11:26.345Z,65.94
2018-08-14T03:13:53.288Z,65.91
2018-08-14T03:16:20.265Z,66.09
2018-08-14T03:18:47.231Z,66.22
2018-08-14T03:21:14.177Z,65.26
2018-08-14T03:23:41.144Z,65.53
2018-08-14T03:26:08.090Z,66.23
2018-08-14T03:28:35.030Z,66.43
2018-08-14T03:31:01.935Z,65.99
2018-08-14T03:33:28.861Z,65.43
2018-08-14T03:35:55.802Z,65.80
2018-08-14T03:38:22.708Z,65.67
2018-08-14T03:40:49.680Z,65.56
2018-08-14T03:43:16.688Z,65.88
2018-08-14T03:45:43.639Z,65.91
2018-08-14T03:48:10.592Z,65.20
2018-08-14T03:50:37.572Z,65.67
2018-08-14T03:53:04.526Z,65.19
2018-08-14T03:55:31.455Z,65.59
2018-08-14T03:57:58.426Z,65.68
2018-08-14T04:00:25.378Z,65.30
2018-08-14T04:02:52.313Z,65.93
2018-08-14T04:05:19.241Z,65.94
2018-08-14T04:07:46.222Z,65.89
2018-08-14T04:10:13.621Z,65.97
2018-08-14T04:12:40.940Z,65.50
2018-08-14T04:15:08.899Z,65.39
2018-08-14T04:17:35.837Z,65.42
2018-08-14T04:20:02.821Z,65.24
2018-08-14T04:22:29.778Z,65.92
2018-08-14T04:24:56.761Z,65.65
2018-08-14T04:27:23.746Z,65.90
2018-08-14T04:29:50.769Z,65.17
2018-08-14T04:32:17.847Z,65.42
2018-08-14T04:34:44.796Z,65.87
2018-08-14T04:37:11.737Z,65.37
2018-08-14T04:39:38.640Z,66.07
2018-08-14T04:42:05.582Z,65.35
2018-08-14T04:44:32.531Z,65.74
2018-08-14T04:46:59.419Z,65.40
2018-08-14T04:49:26.382Z,65.54
2018-08-14T04:51:53.317Z,65.75
2018-08-14T04:54:20.268Z,65.30
2018-08-14T04:56:47.245Z,65.32
2018-08-14T04:59:14.186Z,65.50
2018-08-14T05:01:41.134Z,65.20
2018-08-14T05:04:08.041Z,65.09
2018-08-14T05:06:34.972Z,65.03
2018-08-14T05:09:02.081Z,65.85
2018-08-14T05:11:28.945Z,65.24
2018-08-14T05:13:57.352Z,65.65
2018-08-14T05:16:24.392Z,65.54
2018-08-14T05:18:51.382Z,65.69
2018-08-14T05:21:18.365Z,65.50
2018-08-14T05:23:45.281Z,65.86
2018-08-14T05:26:12.197Z,65.39
2018-08-14T05:28:39.200Z,65.88
2018-08-14T05:31:06.169Z,65.23
2018-08-14T05:33:33.188Z,65.79
2018-08-14T05:36:00.088Z,65.33
2018-08-14T05:38:26.998Z,65.47
2018-08-14T05:40:53.936Z,65.11
2018-08-14T05:43:20.974Z,65.32
2018-08-14T05:45:47.893Z,65.83
2018-08-14T05:48:14.897Z,65.39
2018-08-14T05:50:41.833Z,65.36
2018-08-14T05:53:08.790Z,65.90
2018-08-14T05:58:02.410Z,65.85
2018-08-14T06:00:29.399Z,65.09
2018-08-14T06:02:56.415Z,65.23
2018-08-14T06:05:23.361Z,65.51
2018-08-14T06:07:50.354Z,65.27
2018-08-14T06:10:17.451Z,65.22
2018-08-14T06:12:44.454Z,66.13
2018-08-14T06:15:12.018Z,65.19
2018-08-14T06:17:39.538Z,65.48
2018-08-14T06:20:06.478Z,66.00
2018-08-14T06:22:33.477Z,65.43
2018-08-14T06:25:00.360Z,66.19
2018-08-14T06:27:27.290Z,65.83
2018-08-14T06:29:54.485Z,66.26
2018-08-14T06:32:21.445Z,66.27
2018-08-14T06:34:48.366Z,65.59
2018-08-14T06:37:15.342Z,66.09
2018-08-14T06:39:42.245Z,65.40
2018-08-14T06:42:09.169Z,65.82
2018-08-14T06:44:36.117Z,65.67
2018-08-14T06:47:03.096Z,64.87
2018-08-14T06:49:30.029Z,64.98
2018-08-14T06:51:56.988Z,64.81
2018-08-14T06:54:24.019Z,65.57
2018-08-14T06:56:50.937Z,64.68
2018-08-14T06:59:17.873Z,64.79
2018-08-14T07:01:44.800Z,65.23
2018-08-14T07:04:11.713Z,65.17
2018-08-14T07:06:38.797Z,64.84
2018-08-14T07:09:05.733Z,63.92
2018-08-14T07:11:32.641Z,64.18
2018-08-14T07:13:59.577Z,63.83
2018-08-14T07:16:26.619Z,63.89
2018-08-14T07:18:53.560Z,63.28
2018-08-14T07:21:20.632Z,63.55
2018-08-14T07:23:47.565Z,63.15
2018-08-14T07:26:14.544Z,62.93
2018-08-14T07:28:41.529Z,63.37
2018-08-14T07:31:08.484Z,63.55
2018-08-14T07:33:35.483Z,62.81
2018-08-14T07:36:02.415Z,62.98
2018-08-14T07:38:29.427Z,63.38
2018-08-14T07:40:56.332Z,63.20
2018-08-14T07:43:23.287Z,63.32
2018-08-14T07:45:50.227Z,63.56
2018-08-14T07:48:17.371Z,63.28
2018-08-14T07:50:44.313Z,63.96
2018-08-14T07:53:11.390Z,64.01
2018-08-14T07:55:38.322Z,63.90
2018-08-14T07:58:05.253Z,64.14
2018-08-14T08:00:32.181Z,63.72
2018-08-14T08:02:59.105Z,64.03
2018-08-14T08:05:26.250Z,64.02
2018-08-14T08:07:53.178Z,63.57
2018-08-14T08:10:20.209Z,63.70
2018-08-14T08:12:47.098Z,63.73
2018-08-14T08:15:15.393Z,63.51
2018-08-14T08:17:42.343Z,63.98
2018-08-14T08:20:09.354Z,64.15
2018-08-14T08:22:36.658Z,63.73
2018-08-14T08:25:03.703Z,63.80
2018-08-14T08:27:30.961Z,63.10
2018-08-14T08:29:58.229Z,63.80
2018-08-14T08:32:25.427Z,63.63
2018-08-14T08:34:52.407Z,63.43
2018-08-14T08:37:19.356Z,63.18
2018-08-14T08:39:46.348Z,63.95
2018-08-14T08:42:13.297Z,63.30
2018-08-14T08:44:40.182Z,64.03
2018-08-14T08:47:07.053Z,63.92
2018-08-14T08:49:33.928Z,63.05
2018-08-14T08:52:00.821Z,63.38
2018-08-14T08:54:27.728Z,63.43
2018-08-14T08:56:54.621Z,63.90
2018-08-14T08:59:21.514Z,63.42
2018-08-14T09:01:48.434Z,64.44
2018-08-14T09:04:15.330Z,63.57
2018-08-14T09:06:42.230Z,63.70
2018-08-14T09:09:09.707Z,63.64
2018-08-14T09:11:36.621Z,63.63
2018-08-14T09:14:03.532Z,63.59
2018-08-14T09:16:30.449Z,63.62
2018-08-14T09:18:57.333Z,63.70
2018-08-14T09:21:24.217Z,63.57
2018-08-14T09:23:51.113Z,63.58
2018-08-14T09:26:18.034Z,64.21
2018-08-14T09:28:44.925Z,63.54
2018-08-14T09:31:11.813Z,63.40
2018-08-14T09:33:38.714Z,63.32
2018-08-14T09:36:05.610Z,63.86
2018-08-14T09:38:32.506Z,64.06
2018-08-14T09:40:59.412Z,64.10
2018-08-14T09:43:26.305Z,63.37
2018-08-14T09:45:53.209Z,63.44
2018-08-14T09:48:20.133Z,63.92
2018-08-14T09:50:47.036Z,63.39
2018-08-14T09:53:13.956Z,63.33
2018-08-14T09:55:40.844Z,64.16
2018-08-14T09:58:07.773Z,63.70
2018-08-14T10:00:40.060Z,63.36
2018-08-14T10:03:12.202Z,63.46
2018-08-14T10:05:44.597Z,63.18
2018-08-14T10:08:13.084Z,63.82
2018-08-14T10:10:39.969Z,63.75
2018-08-14T10:13:06.925Z,63.38
2018-08-14T10:15:33.824Z,63.34
2018-08-14T10:20:27.363Z,63.57
2018-08-14T10:22:54.450Z,63.91
2018-08-14T10:25:21.417Z,63.93
2018-08-14T10:27:48.310Z,63.32
2018-08-14T10:30:16.012Z,63.32
2018-08-14T10:32:43.462Z,63.73
2018-08-14T10:35:10.382Z,63.67
2018-08-14T10:37:37.385Z,64.39
2018-08-14T10:40:04.298Z,63.36
2018-08-14T10:42:31.236Z,64.17
2018-08-14T10:44:59.312Z,64.08
2018-08-14T10:47:26.448Z,63.95
2018-08-14T10:49:53.348Z,63.94
2018-08-14T10:52:20.245Z,63.27
2018-08-14T10:54:47.177Z,63.32
2018-08-14T10:57:14.065Z,63.98
2018-08-14T10:59:40.998Z,63.81
2018-08-14T11:02:07.896Z,63.12
2018-08-14T11:04:34.830Z,63.23
2018-08-14T11:07:01.792Z,64.02
2018-08-14T11:09:28.721Z,63.29
2018-08-14T11:12:00.973Z,63.89
2018-08-14T11:14:27.888Z,63.37
2018-08-14T11:16:55.339Z,63.80
2018-08-14T11:19:22.589Z,63.75
2018-08-14T11:21:49.523Z,63.80
2018-08-14T11:24:16.420Z,63.85
2018-08-14T11:26:43.309Z,63.61
2018-08-14T11:29:10.521Z,63.17
2018-08-14T11:31:37.479Z,63.75
2018-08-14T11:34:04.781Z,62.99
2018-08-14T11:36:31.901Z,63.71
2018-08-14T11:38:58.972Z,63.03
2018-08-14T11:41:26.107Z,63.30
2018-08-14T11:43:53.218Z,63.78
2018-08-14T11:46:20.220Z,63.59
2018-08-14T11:48:47.334Z,63.10
2018-08-14T11:51:14.338Z,63.69
2018-08-14T11:53:41.617Z,63.41
2018-08-14T11:56:08.722Z,63.73
2018-08-14T11:58:35.816Z,63.64
2018-08-14T12:01:02.850Z,63.05
2018-08-14T12:03:29.934Z,63.00
2018-08-14T12:05:56.987Z,63.74
2018-08-14T12:08:24.098Z,63.05
2018-08-14T12:10:51.200Z,63.87
2018-08-14T12:13:18.249Z,63.06
2018-08-14T12:15:45.317Z,63.50
2018-08-14T12:18:12.271Z,63.69
2018-08-14T12:20:39.221Z,63.39
2018-08-14T12:23:06.211Z,63.13
2018-08-14T12:25:33.209Z,64.08
2018-08-14T12:28:00.184Z,63.40
2018-08-14T12:30:27.159Z,63.66
2018-08-14T12:32:54.183Z,64.03
2018-08-14T12:35:21.158Z,63.46
2018-08-14T12:37:48.167Z,63.78
2018-08-14T12:40:15.410Z,63.74
2018-08-14T12:42:42.380Z,63.42
2018-08-14T12:45:09.338Z,63.31
2018-08-14T12:47:36.425Z,63.19
2018-08-14T12:50:03.401Z,63.77
2018-08-14T12:52:30.430Z,63.38
2018-08-14T12:54:57.455Z,63.89
2018-08-14T12:57:24.438Z,63.41
2018-08-14T12:59:51.566Z,63.87
2018-08-14T13:02:18.458Z,63.03
2018-08-14T13:04:45.373Z,63.22
2018-08-14T13:07:12.274Z,64.11
2018-08-14T13:09:39.162Z,63.81
2018-08-14T13:12:06.062Z,63.48
2018-08-14T13:14:32.966Z,63.96
2018-08-14T13:16:59.965Z,63.71
2018-08-14T13:19:26.844Z,63.21
2018-08-14T13:21:53.750Z,63.12
2018-08-14T13:24:20.668Z,63.77
2018-08-14T13:26:47.589Z,63.25
2018-08-14T13:29:14.481Z,63.27
2018-08-14T13:31:41.765Z,63.72
2018-08-14T13:34:08.649Z,63.00
2018-08-14T13:36:35.536Z,63.69
2018-08-14T13:39:02.483Z,63.47
2018-08-14T13:41:29.364Z,63.17
2018-08-14T13:43:56.276Z,63.63
2018-08-14T13:46:23.492Z,63.35
2018-08-14T13:48:50.384Z,63.91
2018-08-14T13:51:17.281Z,63.31
2018-08-14T13:53:44.263Z,63.85
2018-08-14T13:56:11.180Z,63.16
2018-08-14T13:58:38.077Z,63.33
2018-08-14T14:01:04.977Z,62.71
2018-08-14T14:03:31.899Z,63.01
2018-08-14T14:05:58.800Z,63.35
2018-08-14T14:08:25.708Z,62.76
2018-08-14T14:10:52.602Z,63.39
2018-08-14T14:13:19.571Z,63.51
2018-08-14T14:15:46.425Z,63.92
2018-08-14T14:18:13.324Z,63.24
2018-08-14T14:20:40.237Z,63.17
2018-08-14T14:23:07.133Z,63.15
2018-08-14T14:25:34.024Z,63.25
2018-08-14T14:28:00.920Z,63.04
2018-08-14T14:30:27.818Z,63.31
2018-08-14T14:32:54.778Z,63.78
2018-08-14T14:35:21.669Z,63.23
2018-08-14T14:37:48.581Z,63.35
2018-08-14T14:40:17.125Z,63.72
2018-08-14T14:42:44.015Z,63.49
2018-08-14T14:45:12.429Z,63.92
2018-08-14T14:47:39.316Z,63.96
2018-08-14T14:50:06.260Z,63.80
2018-08-14T14:52:33.169Z,63.24
2018-08-14T14:55:00.079Z,63.48
2018-08-14T14:57:26.973Z,63.39
2018-08-14T14:59:54.007Z,63.24
2018-08-14T15:02:20.921Z,63.74
2018-08-14T15:04:47.818Z,63.97
2018-08-14T15:07:14.710Z,63.64
2018-08-14T15:09:41.601Z,63.87
2018-08-14T15:12:08.493Z,63.69
2018-08-14T15:14:35.390Z,63.80
2018-08-14T15:17:02.281Z,62.93
2018-08-14T15:19:29.170Z,63.62
2018-08-14T15:21:56.065Z,63.84
2018-08-14T15:24:22.983Z,63.50
2018-08-14T15:26:49.888Z,63.32
2018-08-14T15:29:17.749Z,63.64
2018-08-14T15:31:45.020Z,63.31
2018-08-14T15:34:12.076Z,63.77
2018-08-14T15:36:38.969Z,63.59
2018-08-14T15:39:06.055Z,63.65
2018-08-14T15:41:32.944Z,63.70
2018-08-14T15:43:59.858Z,63.61
2018-08-14T15:46:26.744Z,63.07
2018-08-14T15:48:53.642Z,62.91
2018-08-14T15:51:20.776Z,63.09
2018-08-14T15:53:48.064Z,63.69
2018-08-14T15:56:14.961Z,63.50
2018-08-14T15:58:41.908Z,62.75
2018-08-14T16:01:08.834Z,62.91
2018-08-14T16:03:35.809Z,63.38
2018-08-14T16:06:02.716Z,63.64
2018-08-14T16:08:29.604Z,62.88
2018-08-14T16:10:56.542Z,62.83
2018-08-14T16:13:23.455Z,62.80
2018-08-14T16:15:50.349Z,63.52
2018-08-14T16:18:17.296Z,63.39
2018-08-14T16:20:44.484Z,63.35
2018-08-14T16:23:11.355Z,62.87
2018-08-14T16:25:38.270Z,63.25
2018-08-14T16:28:05.166Z,63.65
2018-08-14T16:30:32.081Z,63.70
2018-08-14T16:32:59.408Z,63.62
2018-08-14T16:35:26.268Z,62.91
2018-08-14T16:37:53.212Z,63.53
2018-08-14T16:40:20.109Z,63.66
2018-08-14T16:42:46.988Z,63.13
2018-08-14T16:45:13.897Z,63.67
2018-08-14T16:47:41.061Z,63.42
2018-08-14T16:50:07.956Z,63.07
2018-08-14T16:52:34.866Z,62.76
2018-08-14T16:55:01.759Z,62.97
2018-08-14T16:57:28.671Z,63.59
2018-08-14T16:59:55.866Z,63.35
2018-08-14T17:02:22.754Z,62.87
2018-08-14T17:04:49.653Z,63.25
2018-08-14T17:07:16.529Z,62.86
2018-08-14T17:09:43.404Z,63.32
2018-08-14T17:12:10.384Z,63.29
2018-08-14T17:14:37.282Z,63.51
2018-08-14T17:17:04.165Z,62.88
2018-08-14T17:19:31.053Z,63.34
2018-08-14T17:21:57.942Z,62.50
2018-08-14T17:24:24.847Z,62.97
2018-08-14T17:26:51.868Z,62.61
2018-08-14T17:29:18.776Z,62.92
2018-08-14T17:31:45.744Z,63.31
2018-08-14T17:34:12.690Z,63.14
2018-08-14T17:36:39.595Z,62.62
2018-08-14T17:39:06.485Z,63.39
2018-08-14T17:41:33.398Z,63.33
2018-08-14T17:44:00.339Z,63.24
2018-08-14T17:46:27.228Z,63.05
2018-08-14T17:48:54.145Z,63.34
2018-08-14T17:51:21.066Z,63.30
2018-08-14T17:53:47.944Z,62.67
2018-08-14T17:56:14.829Z,63.12
2018-08-14T17:58:41.734Z,62.33
2018-08-14T18:01:08.623Z,62.48
2018-08-14T18:03:35.596Z,62.74
2018-08-14T18:06:02.485Z,63.24
2018-08-14T18:08:29.401Z,63.11
2018-08-14T18:10:56.325Z,62.63
2018-08-14T18:13:23.212Z,62.41
2018-08-14T18:15:50.116Z,62.38
2018-08-14T18:18:17.014Z,62.67
2018-08-14T18:20:43.905Z,62.91
2018-08-14T18:23:10.836Z,62.50
2018-08-14T18:25:37.734Z,62.39
2018-08-14T18:28:04.620Z,62.52
2018-08-14T18:30:31.507Z,62.98
2018-08-14T18:32:58.397Z,62.94
2018-08-14T18:35:25.321Z,63.09
2018-08-14T18:37:52.290Z,63.16
2018-08-14T18:40:20.509Z,62.63
2018-08-14T18:42:47.565Z,63.07
2018-08-14T18:45:15.682Z,62.72
2018-08-14T18:47:42.922Z,63.03
2018-08-14T18:50:10.250Z,62.50
2018-08-14T18:52:37.697Z,62.57
2018-08-14T18:55:04.589Z,62.43
2018-08-14T18:57:31.486Z,63.23
2018-08-14T18:59:58.556Z,62.82
2018-08-14T19:02:25.449Z,63.64
2018-08-14T19:04:52.710Z,63.67
2018-08-14T19:07:19.582Z,63.43
2018-08-14T19:09:46.482Z,62.81
2018-08-14T19:12:13.486Z,63.69
2018-08-14T19:14:40.378Z,63.18
2018-08-14T19:17:07.297Z,62.98
2018-08-14T19:19:34.204Z,62.75
2018-08-14T19:22:01.361Z,63.67
2018-08-14T19:24:28.289Z,63.34
2018-08-14T19:26:55.187Z,63.22
2018-08-14T19:29:22.077Z,63.33
2018-08-14T19:31:49.053Z,63.77
2018-08-14T19:34:16.182Z,63.07
2018-08-14T19:36:43.154Z,63.69
2018-08-14T19:39:11.498Z,63.25
2018-08-14T19:41:38.640Z,63.87
2018-08-14T19:44:05.557Z,63.74
2018-08-14T19:46:32.473Z,63.49
2018-08-14T19:48:59.822Z,63.70
2018-08-14T19:51:26.734Z,63.19
2018-08-14T19:53:53.717Z,63.05
2018-08-14T19:56:20.610Z,62.88
2018-08-14T19:58:47.510Z,63.85
2018-08-14T20:01:14.422Z,63.35
2018-08-14T20:03:41.338Z,63.72
2018-08-14T20:06:08.317Z,63.68
2018-08-14T20:08:35.241Z,63.43
2018-08-14T20:11:02.182Z,63.47
2018-08-14T20:13:29.120Z,63.64
2018-08-14T20:16:01.466Z,63.49
2018-08-14T20:18:28.447Z,63.72
2018-08-14T20:20:55.429Z,63.84
2018-08-14T20:23:22.450Z,63.07
2018-08-14T20:25:49.402Z,63.66
2018-08-14T20:28:16.354Z,63.55
2018-08-14T20:30:43.334Z,63.13
2018-08-14T20:33:10.329Z,63.47
2018-08-14T20:35:37.297Z,63.58
2018-08-14T20:38:04.249Z,63.49
2018-08-14T20:40:31.203Z,62.98
2018-08-14T20:42:58.193Z,63.03
2018-08-14T20:45:25.146Z,62.87
2018-08-14T20:47:52.057Z,63.61
2018-08-14T20:50:19.843Z,63.38
2018-08-14T20:52:46.770Z,63.12
2018-08-14T20:55:13.888Z,63.11
2018-08-14T20:57:41.983Z,63.66
2018-08-14T21:00:09.056Z,62.83
2018-08-14T21:02:36.309Z,63.54
2018-08-14T21:05:03.303Z,63.45
2018-08-14T21:07:30.257Z,63.36
2018-08-14T21:09:57.264Z,63.53
2018-08-14T21:12:29.621Z,63.13
2018-08-14T21:14:57.014Z,62.83
2018-08-14T21:17:23.934Z,63.46
2018-08-14T21:19:50.894Z,63.38
2018-08-14T21:22:17.827Z,63.62
2018-08-14T21:24:44.781Z,63.83
2018-08-14T21:27:11.721Z,63.23
2018-08-14T21:29:38.712Z,62.88
2018-08-14T21:32:05.742Z,63.13
2018-08-14T21:34:32.742Z,63.74
2018-08-14T21:36:59.703Z,63.70
2018-08-14T21:39:26.665Z,63.84
2018-08-14T21:41:53.653Z,62.98
2018-08-14T21:44:20.638Z,63.36
2018-08-14T21:46:47.681Z,63.52
2018-08-14T21:49:14.615Z,62.87
2018-08-14T21:51:41.581Z,63.67
2018-08-14T21:54:08.503Z,63.55
2018-08-14T21:56:35.459Z,62.83
2018-08-14T21:59:02.418Z,63.09
2018-08-14T22:01:29.399Z,62.89
2018-08-14T22:03:56.370Z,63.32
2018-08-14T22:06:23.346Z,63.06
2018-08-14T22:08:50.299Z,63.68
2018-08-14T22:11:17.265Z,63.85
2018-08-14T22:13:44.228Z,63.62
2018-08-14T22:16:11.152Z,63.21
2018-08-14T22:18:38.103Z,63.72
2018-08-14T22:21:05.038Z,63.09
2018-08-14T22:23:31.988Z,63.03
2018-08-14T22:25:59.067Z,63.72
2018-08-14T22:28:26.235Z,63.89
2018-08-14T22:30:53.224Z,63.52
2018-08-14T22:33:20.198Z,63.59
2018-08-14T22:35:47.131Z,63.67
2018-08-14T22:38:14.055Z,63.67
2018-08-14T22:40:41.016Z,63.12
2018-08-14T22:43:08.020Z,62.94
2018-08-14T22:45:34.985Z,63.17
2018-08-14T22:48:01.893Z,62.96
2018-08-14T22:50:28.863Z,62.86
2018-08-14T22:52:55.844Z,63.60
2018-08-14T22:55:22.732Z,63.46
2018-08-14T22:57:49.806Z,63.92
2018-08-14T23:00:17.439Z,63.43
2018-08-14T23:02:44.448Z,63.51
2018-08-14T23:05:11.783Z,63.06
2018-08-14T23:07:38.728Z,63.50
2018-08-14T23:10:05.726Z,63.61
2018-08-14T23:12:32.721Z,63.12
2018-08-14T23:14:59.694Z,63.48
2018-08-14T23:17:26.646Z,63.14
2018-08-14T23:19:53.576Z,63.67
2018-08-14T23:22:20.498Z,63.65
2018-08-14T23:24:47.549Z,63.52
2018-08-14T23:27:14.573Z,63.12
2018-08-14T23:29:41.573Z,63.73
2018-08-14T23:32:08.502Z,63.68
2018-08-14T23:34:35.460Z,63.08
2018-08-14T23:37:02.408Z,62.95
2018-08-14T23:39:29.409Z,63.02
2018-08-14T23:41:56.313Z,63.68
2018-08-14T23:44:23.264Z,63.25
2018-08-14T23:46:50.241Z,63.53
2018-08-14T23:49:17.204Z,62.96
2018-08-14T23:51:44.266Z,63.11
2018-08-14T23:54:11.219Z,63.58
2018-08-14T23:56:38.165Z,63.53
2018-08-14T23:59:05.167Z,63.17
